sensor_id;sensor_type;location;lat;lon;timestamp;pressure;altitude;pressure_sealevel;temperature;humidity
29935;BME280;19905;53.370;-6.314;2023-05-03T00:00:40;102065.28;;;11.28;100.00
29935;BME280;19905;53.370;-6.314;2023-05-03T00:03:08;102062.69;;;11.26;100.00
29935;BME280;19905;53.370;-6.314;2023-05-03T00:05:37;102059.88;;;11.29;100.00
29935;BME280;19905;53.370;-6.314;2023-05-03T00:08:06;102061.34;;;11.19;100.00
29935;BME280;19905;53.370;-6.314;2023-05-03T00:10:34;102055.22;;;11.18;100.00
29935;BME280;19905;53.370;-6.314;2023-05-03T00:13:03;102064.75;;;11.21;100.00
29935;BME280;19905;53.370;-6.314;2023-05-03T00:15:35;102065.00;;;11.16;100.00
29935;BME280;19905;53.370;-6.314;2023-05-03T00:18:05;102067.84;;;11.13;100.00
29935;BME280;19905;53.370;-6.314;2023-05-03T00:20:35;102072.09;;;11.16;100.00
29935;BME280;19905;53.370;-6.314;2023-05-03T00:23:03;102068.44;;;11.18;100.00
29935;BME280;19905;53.370;-6.314;2023-05-03T00:25:32;102071.84;;;11.20;100.00
29935;BME280;19905;53.370;-6.314;2023-05-03T00:28:00;102070.31;;;11.16;100.00
29935;BME280;19905;53.370;-6.314;2023-05-03T00:30:29;102069.34;;;11.17;100.00
29935;BME280;19905;53.370;-6.314;2023-05-03T00:32:58;102073.78;;;11.17;100.00
29935;BME280;19905;53.370;-6.314;2023-05-03T00:35:30;102076.53;;;11.15;100.00
29935;BME280;19905;53.370;-6.314;2023-05-03T00:37:58;102079.34;;;11.12;100.00
29935;BME280;19905;53.370;-6.314;2023-05-03T00:40:27;102070.88;;;11.22;100.00
29935;BME280;19905;53.370;-6.314;2023-05-03T00:42:56;102071.25;;;11.15;100.00
29935;BME280;19905;53.370;-6.314;2023-05-03T00:45:24;102072.19;;;11.14;100.00
29935;BME280;19905;53.370;-6.314;2023-05-03T00:47:54;102067.06;;;11.11;100.00
29935;BME280;19905;53.370;-6.314;2023-05-03T00:50:22;102072.78;;;11.19;100.00
29935;BME280;19905;53.370;-6.314;2023-05-03T00:52:55;102062.22;;;11.19;100.00
29935;BME280;19905;53.370;-6.314;2023-05-03T00:55:27;102056.91;;;11.19;100.00
29935;BME280;19905;53.370;-6.314;2023-05-03T00:57:57;102059.13;;;11.27;100.00
29935;BME280;19905;53.370;-6.314;2023-05-03T01:00:26;102055.59;;;11.27;100.00
29935;BME280;19905;53.370;-6.314;2023-05-03T01:02:56;102053.84;;;11.27;100.00
29935;BME280;19905;53.370;-6.314;2023-05-03T01:05:28;102052.91;;;11.28;100.00
29935;BME280;19905;53.370;-6.314;2023-05-03T01:08:08;102054.00;;;11.24;100.00
29935;BME280;19905;53.370;-6.314;2023-05-03T01:10:42;102042.00;;;11.18;100.00
29935;BME280;19905;53.370;-6.314;2023-05-03T01:13:21;102046.34;;;11.19;100.00
29935;BME280;19905;53.370;-6.314;2023-05-03T01:15:58;102043.59;;;11.21;100.00
29935;BME280;19905;53.370;-6.314;2023-05-03T01:18:29;102042.66;;;11.22;100.00
29935;BME280;19905;53.370;-6.314;2023-05-03T01:20:59;102030.19;;;11.24;100.00
29935;BME280;19905;53.370;-6.314;2023-05-03T01:23:39;102030.63;;;11.32;100.00
29935;BME280;19905;53.370;-6.314;2023-05-03T01:26:20;102028.81;;;11.33;100.00
29935;BME280;19905;53.370;-6.314;2023-05-03T01:28:50;102030.69;;;11.31;100.00
29935;BME280;19905;53.370;-6.314;2023-05-03T01:34:47;102035.81;;;11.34;100.00
29935;BME280;19905;53.370;-6.314;2023-05-03T01:37:19;102022.69;;;11.32;100.00
29935;BME280;19905;53.370;-6.314;2023-05-03T01:39:52;102022.94;;;11.28;100.00
29935;BME280;19905;53.370;-6.314;2023-05-03T01:42:23;102019.72;;;11.23;100.00
29935;BME280;19905;53.370;-6.314;2023-05-03T01:44:53;102022.44;;;11.21;100.00
29935;BME280;19905;53.370;-6.314;2023-05-03T01:47:23;102030.63;;;11.16;100.00
29935;BME280;19905;53.370;-6.314;2023-05-03T01:49:52;102029.63;;;11.19;100.00
29935;BME280;19905;53.370;-6.314;2023-05-03T01:52:23;102023.75;;;11.14;100.00
29935;BME280;19905;53.370;-6.314;2023-05-03T01:54:51;102024.09;;;11.08;100.00
29935;BME280;19905;53.370;-6.314;2023-05-03T01:57:20;102022.28;;;11.08;100.00
29935;BME280;19905;53.370;-6.314;2023-05-03T01:59:52;102019.06;;;11.03;100.00
29935;BME280;19905;53.370;-6.314;2023-05-03T02:02:20;102013.19;;;10.98;100.00
29935;BME280;19905;53.370;-6.314;2023-05-03T02:04:49;102009.16;;;11.07;100.00
29935;BME280;19905;53.370;-6.314;2023-05-03T02:07:18;102007.31;;;11.09;100.00
29935;BME280;19905;53.370;-6.314;2023-05-03T02:09:49;102006.34;;;11.10;100.00
29935;BME280;19905;53.370;-6.314;2023-05-03T02:12:17;102006.84;;;11.16;100.00
29935;BME280;19905;53.370;-6.314;2023-05-03T02:14:48;102003.72;;;11.10;100.00
29935;BME280;19905;53.370;-6.314;2023-05-03T02:17:18;101998.59;;;11.07;100.00
29935;BME280;19905;53.370;-6.314;2023-05-03T02:19:47;102002.59;;;11.14;100.00
29935;BME280;19905;53.370;-6.314;2023-05-03T02:22:15;101998.72;;;11.19;100.00
29935;BME280;19905;53.370;-6.314;2023-05-03T02:24:44;102002.06;;;11.23;100.00
29935;BME280;19905;53.370;-6.314;2023-05-03T02:27:17;101996.84;;;11.22;100.00
29935;BME280;19905;53.370;-6.314;2023-05-03T02:29:49;101995.81;;;11.24;100.00
29935;BME280;19905;53.370;-6.314;2023-05-03T02:32:28;101999.47;;;11.22;100.00
29935;BME280;19905;53.370;-6.314;2023-05-03T02:34:56;102002.13;;;11.22;100.00
29935;BME280;19905;53.370;-6.314;2023-05-03T02:37:31;101991.91;;;11.15;100.00
29935;BME280;19905;53.370;-6.314;2023-05-03T02:40:08;101996.19;;;11.18;100.00
29935;BME280;19905;53.370;-6.314;2023-05-03T02:42:43;101994.66;;;11.14;100.00
29935;BME280;19905;53.370;-6.314;2023-05-03T02:45:12;101997.56;;;11.09;100.00
29935;BME280;19905;53.370;-6.314;2023-05-03T02:48:07;101997.16;;;11.01;100.00
29935;BME280;19905;53.370;-6.314;2023-05-03T02:50:59;102004.91;;;11.04;100.00
29935;BME280;19905;53.370;-6.314;2023-05-03T02:53:27;102003.19;;;11.03;100.00
29935;BME280;19905;53.370;-6.314;2023-05-03T02:55:57;101998.38;;;10.96;100.00
29935;BME280;19905;53.370;-6.314;2023-05-03T02:58:26;102000.44;;;10.90;100.00
29935;BME280;19905;53.370;-6.314;2023-05-03T03:00:54;101994.72;;;10.82;100.00
29935;BME280;19905;53.370;-6.314;2023-05-03T03:03:24;101995.03;;;10.76;100.00
29935;BME280;19905;53.370;-6.314;2023-05-03T03:05:54;101999.69;;;10.73;100.00
29935;BME280;19905;53.370;-6.314;2023-05-03T03:08:22;102001.53;;;10.71;100.00
29935;BME280;19905;53.370;-6.314;2023-05-03T03:10:51;102012.09;;;10.71;100.00
29935;BME280;19905;53.370;-6.314;2023-05-03T03:13:19;102007.16;;;10.64;100.00
29935;BME280;19905;53.370;-6.314;2023-05-03T03:15:48;102002.38;;;10.71;100.00
29935;BME280;19905;53.370;-6.314;2023-05-03T03:18:16;102005.81;;;10.73;100.00
29935;BME280;19905;53.370;-6.314;2023-05-03T03:20:47;102007.66;;;10.71;100.00
29935;BME280;19905;53.370;-6.314;2023-05-03T03:23:15;102001.19;;;10.61;100.00
29935;BME280;19905;53.370;-6.314;2023-05-03T03:25:45;102001.88;;;10.64;100.00
29935;BME280;19905;53.370;-6.314;2023-05-03T03:28:15;101997.94;;;10.72;100.00
29935;BME280;19905;53.370;-6.314;2023-05-03T03:30:47;101999.75;;;10.71;100.00
29935;BME280;19905;53.370;-6.314;2023-05-03T03:33:15;102000.44;;;10.75;100.00
29935;BME280;19905;53.370;-6.314;2023-05-03T03:35:43;101995.03;;;10.76;100.00
29935;BME280;19905;53.370;-6.314;2023-05-03T03:38:14;102000.16;;;10.79;100.00
29935;BME280;19905;53.370;-6.314;2023-05-03T03:40:42;101989.59;;;10.79;100.00
29935;BME280;19905;53.370;-6.314;2023-05-03T03:43:11;101986.78;;;10.82;100.00
29935;BME280;19905;53.370;-6.314;2023-05-03T03:45:39;101987.22;;;10.90;100.00
29935;BME280;19905;53.370;-6.314;2023-05-03T03:48:07;101981.66;;;10.95;100.00
29935;BME280;19905;53.370;-6.314;2023-05-03T03:50:36;101973.34;;;11.01;100.00
29935;BME280;19905;53.370;-6.314;2023-05-03T03:53:06;101967.22;;;11.01;100.00
29935;BME280;19905;53.370;-6.314;2023-05-03T03:55:36;101967.91;;;11.04;100.00
29935;BME280;19905;53.370;-6.314;2023-05-03T03:58:07;101968.66;;;11.06;100.00
29935;BME280;19905;53.370;-6.314;2023-05-03T04:00:38;101963.47;;;11.05;100.00
29935;BME280;19905;53.370;-6.314;2023-05-03T04:03:08;101964.59;;;11.01;100.00
29935;BME280;19905;53.370;-6.314;2023-05-03T04:05:38;101965.63;;;11.12;100.00
29935;BME280;19905;53.370;-6.314;2023-05-03T04:08:08;101958.19;;;11.05;100.00
29935;BME280;19905;53.370;-6.314;2023-05-03T04:10:38;101965.31;;;11.03;100.00
29935;BME280;19905;53.370;-6.314;2023-05-03T04:13:08;101966.09;;;11.05;100.00
29935;BME280;19905;53.370;-6.314;2023-05-03T04:15:37;101959.19;;;11.02;100.00
29935;BME280;19905;53.370;-6.314;2023-05-03T04:18:06;101954.00;;;11.01;100.00
29935;BME280;19905;53.370;-6.314;2023-05-03T04:20:34;101957.50;;;11.01;100.00
29935;BME280;19905;53.370;-6.314;2023-05-03T04:23:06;101961.00;;;11.02;100.00
29935;BME280;19905;53.370;-6.314;2023-05-03T04:25:34;101962.88;;;11.00;100.00
29935;BME280;19905;53.370;-6.314;2023-05-03T04:28:06;101962.94;;;10.98;100.00
29935;BME280;19905;53.370;-6.314;2023-05-03T04:30:35;101969.03;;;11.00;100.00
29935;BME280;19905;53.370;-6.314;2023-05-03T04:33:07;101970.88;;;10.98;100.00
29935;BME280;19905;53.370;-6.314;2023-05-03T04:35:35;101974.56;;;10.96;100.00
29935;BME280;19905;53.370;-6.314;2023-05-03T04:38:05;101976.47;;;10.78;100.00
29935;BME280;19905;53.370;-6.314;2023-05-03T04:40:34;101980.97;;;10.76;100.00
29935;BME280;19905;53.370;-6.314;2023-05-03T04:43:03;101988.06;;;10.75;100.00
29935;BME280;19905;53.370;-6.314;2023-05-03T04:45:33;101987.47;;;10.70;100.00
29935;BME280;19905;53.370;-6.314;2023-05-03T04:48:02;101978.69;;;10.69;100.00
29935;BME280;19905;53.370;-6.314;2023-05-03T04:50:32;101983.97;;;10.69;100.00
29935;BME280;19905;53.370;-6.314;2023-05-03T04:53:01;101988.41;;;10.69;100.00
29935;BME280;19905;53.370;-6.314;2023-05-03T04:55:30;101988.56;;;10.66;100.00
29935;BME280;19905;53.370;-6.314;2023-05-03T04:57:59;101991.81;;;10.71;100.00
29935;BME280;19905;53.370;-6.314;2023-05-03T05:00:29;101980.91;;;10.77;100.00
29935;BME280;19905;53.370;-6.314;2023-05-03T05:02:59;101982.78;;;10.75;100.00
29935;BME280;19905;53.370;-6.314;2023-05-03T05:05:28;101980.81;;;10.79;100.00
29935;BME280;19905;53.370;-6.314;2023-05-03T05:07:56;101982.34;;;10.83;100.00
29935;BME280;19905;53.370;-6.314;2023-05-03T05:10:25;101982.25;;;10.84;100.00
29935;BME280;19905;53.370;-6.314;2023-05-03T05:12:54;101975.94;;;10.87;100.00
29935;BME280;19905;53.370;-6.314;2023-05-03T05:15:22;101986.44;;;10.88;100.00
29935;BME280;19905;53.370;-6.314;2023-05-03T05:17:50;101980.97;;;10.91;100.00
29935;BME280;19905;53.370;-6.314;2023-05-03T05:20:20;101986.31;;;10.90;100.00
29935;BME280;19905;53.370;-6.314;2023-05-03T05:22:50;101986.25;;;10.91;100.00
29935;BME280;19905;53.370;-6.314;2023-05-03T05:25:18;101988.53;;;10.98;100.00
29935;BME280;19905;53.370;-6.314;2023-05-03T05:27:47;101989.50;;;10.97;100.00
29935;BME280;19905;53.370;-6.314;2023-05-03T05:30:15;101984.19;;;10.97;100.00
29935;BME280;19905;53.370;-6.314;2023-05-03T05:32:47;101993.56;;;11.02;100.00
29935;BME280;19905;53.370;-6.314;2023-05-03T05:35:16;101993.47;;;11.04;100.00
29935;BME280;19905;53.370;-6.314;2023-05-03T05:37:46;101994.16;;;11.07;100.00
29935;BME280;19905;53.370;-6.314;2023-05-03T05:40:15;102001.06;;;11.10;100.00
29935;BME280;19905;53.370;-6.314;2023-05-03T05:42:46;102000.69;;;11.16;100.00
29935;BME280;19905;53.370;-6.314;2023-05-03T05:45:15;101993.59;;;11.16;100.00
29935;BME280;19905;53.370;-6.314;2023-05-03T05:47:44;102004.50;;;11.26;100.00
29935;BME280;19905;53.370;-6.314;2023-05-03T05:50:12;101999.88;;;11.30;100.00
29935;BME280;19905;53.370;-6.314;2023-05-03T05:52:49;102002.44;;;11.31;100.00
29935;BME280;19905;53.370;-6.314;2023-05-03T05:55:18;102003.13;;;11.35;100.00
29935;BME280;19905;53.370;-6.314;2023-05-03T05:57:47;102005.47;;;11.39;100.00
29935;BME280;19905;53.370;-6.314;2023-05-03T06:00:15;102006.47;;;11.53;100.00
29935;BME280;19905;53.370;-6.314;2023-05-03T06:02:45;102006.06;;;11.44;100.00
29935;BME280;19905;53.370;-6.314;2023-05-03T06:05:13;102001.56;;;11.47;100.00
29935;BME280;19905;53.370;-6.314;2023-05-03T06:07:42;102002.78;;;11.55;100.00
29935;BME280;19905;53.370;-6.314;2023-05-03T06:10:13;101995.19;;;11.49;100.00
29935;BME280;19905;53.370;-6.314;2023-05-03T06:12:42;102003.91;;;11.51;100.00
29935;BME280;19905;53.370;-6.314;2023-05-03T06:15:10;102002.31;;;11.63;100.00
29935;BME280;19905;53.370;-6.314;2023-05-03T06:17:39;102003.09;;;11.65;100.00
29935;BME280;19905;53.370;-6.314;2023-05-03T06:20:08;102001.19;;;11.67;100.00
29935;BME280;19905;53.370;-6.314;2023-05-03T06:22:38;102000.44;;;11.65;100.00
29935;BME280;19905;53.370;-6.314;2023-05-03T06:25:07;101992.91;;;11.73;100.00
29935;BME280;19905;53.370;-6.314;2023-05-03T06:27:37;102001.16;;;11.97;100.00
29935;BME280;19905;53.370;-6.314;2023-05-03T06:30:07;101981.22;;;11.91;100.00
29935;BME280;19905;53.370;-6.314;2023-05-03T06:32:37;101987.44;;;11.90;100.00
29935;BME280;19905;53.370;-6.314;2023-05-03T06:35:07;101974.31;;;11.89;100.00
29935;BME280;19905;53.370;-6.314;2023-05-03T06:37:36;101970.22;;;11.98;100.00
29935;BME280;19905;53.370;-6.314;2023-05-03T06:40:06;101967.75;;;12.09;100.00
29935;BME280;19905;53.370;-6.314;2023-05-03T06:42:35;101958.66;;;12.13;100.00
29935;BME280;19905;53.370;-6.314;2023-05-03T06:45:09;101962.66;;;12.20;100.00
29935;BME280;19905;53.370;-6.314;2023-05-03T06:47:37;101952.72;;;12.24;100.00
29935;BME280;19905;53.370;-6.314;2023-05-03T06:50:09;101957.50;;;12.31;100.00
29935;BME280;19905;53.370;-6.314;2023-05-03T06:52:38;101951.19;;;12.34;100.00
29935;BME280;19905;53.370;-6.314;2023-05-03T06:55:08;101956.25;;;12.37;100.00
29935;BME280;19905;53.370;-6.314;2023-05-03T06:57:37;101954.44;;;12.52;100.00
29935;BME280;19905;53.370;-6.314;2023-05-03T07:00:09;101947.16;;;12.41;100.00
29935;BME280;19905;53.370;-6.314;2023-05-03T07:02:38;101946.13;;;12.43;100.00
29935;BME280;19905;53.370;-6.314;2023-05-03T07:05:07;101948.28;;;12.51;100.00
29935;BME280;19905;53.370;-6.314;2023-05-03T07:07:36;101948.84;;;12.56;100.00
29935;BME280;19905;53.370;-6.314;2023-05-03T07:10:05;101947.22;;;12.54;100.00
29935;BME280;19905;53.370;-6.314;2023-05-03T07:12:33;101945.13;;;12.59;100.00
29935;BME280;19905;53.370;-6.314;2023-05-03T07:15:02;101954.03;;;12.58;100.00
29935;BME280;19905;53.370;-6.314;2023-05-03T07:17:33;101953.19;;;12.57;100.00
29935;BME280;19905;53.370;-6.314;2023-05-03T07:20:01;101944.81;;;12.63;100.00
29935;BME280;19905;53.370;-6.314;2023-05-03T07:22:30;101939.75;;;12.60;100.00
29935;BME280;19905;53.370;-6.314;2023-05-03T07:24:59;101937.47;;;12.54;100.00
29935;BME280;19905;53.370;-6.314;2023-05-03T07:27:28;101937.22;;;12.71;100.00
29935;BME280;19905;53.370;-6.314;2023-05-03T07:29:56;101937.53;;;12.67;100.00
29935;BME280;19905;53.370;-6.314;2023-05-03T07:32:25;101943.69;;;12.67;100.00
29935;BME280;19905;53.370;-6.314;2023-05-03T07:34:55;101939.03;;;12.71;100.00
29935;BME280;19905;53.370;-6.314;2023-05-03T07:37:23;101939.22;;;12.68;100.00
29935;BME280;19905;53.370;-6.314;2023-05-03T07:39:53;101930.53;;;12.66;100.00
29935;BME280;19905;53.370;-6.314;2023-05-03T07:42:22;101928.63;;;12.68;100.00
29935;BME280;19905;53.370;-6.314;2023-05-03T07:44:51;101928.53;;;12.69;100.00
29935;BME280;19905;53.370;-6.314;2023-05-03T07:47:21;101928.44;;;12.71;100.00
29935;BME280;19905;53.370;-6.314;2023-05-03T07:49:49;101921.13;;;12.75;100.00
29935;BME280;19905;53.370;-6.314;2023-05-03T07:52:20;101921.22;;;12.73;100.00
29935;BME280;19905;53.370;-6.314;2023-05-03T07:54:48;101925.22;;;12.66;100.00
29935;BME280;19905;53.370;-6.314;2023-05-03T07:57:17;101923.78;;;12.75;100.00
29935;BME280;19905;53.370;-6.314;2023-05-03T07:59:46;101929.81;;;12.77;100.00
29935;BME280;19905;53.370;-6.314;2023-05-03T08:02:14;101929.41;;;12.83;100.00
29935;BME280;19905;53.370;-6.314;2023-05-03T08:04:43;101925.72;;;12.85;100.00
29935;BME280;19905;53.370;-6.314;2023-05-03T08:07:12;101931.34;;;12.93;100.00
29935;BME280;19905;53.370;-6.314;2023-05-03T08:09:42;101937.19;;;12.98;100.00
29935;BME280;19905;53.370;-6.314;2023-05-03T08:12:10;101935.09;;;13.04;100.00
29935;BME280;19905;53.370;-6.314;2023-05-03T08:14:39;101939.03;;;13.11;100.00
29935;BME280;19905;53.370;-6.314;2023-05-03T08:17:08;101937.00;;;13.14;100.00
29935;BME280;19905;53.370;-6.314;2023-05-03T08:19:37;101940.69;;;13.26;100.00
29935;BME280;19905;53.370;-6.314;2023-05-03T08:22:06;101934.31;;;13.41;100.00
29935;BME280;19905;53.370;-6.314;2023-05-03T08:24:37;101925.41;;;13.42;100.00
29935;BME280;19905;53.370;-6.314;2023-05-03T08:27:07;101929.31;;;13.37;100.00
29935;BME280;19905;53.370;-6.314;2023-05-03T08:29:38;101926.47;;;13.53;100.00
29935;BME280;19905;53.370;-6.314;2023-05-03T08:32:06;101931.47;;;13.57;100.00
29935;BME280;19905;53.370;-6.314;2023-05-03T08:34:35;101925.50;;;13.66;100.00
29935;BME280;19905;53.370;-6.314;2023-05-03T08:37:03;101918.91;;;13.72;100.00
29935;BME280;19905;53.370;-6.314;2023-05-03T08:39:32;101924.88;;;13.76;100.00
29935;BME280;19905;53.370;-6.314;2023-05-03T08:42:07;101929.00;;;13.80;100.00
29935;BME280;19905;53.370;-6.314;2023-05-03T08:44:36;101925.59;;;13.65;100.00
29935;BME280;19905;53.370;-6.314;2023-05-03T08:47:13;101919.63;;;13.74;100.00
29935;BME280;19905;53.370;-6.314;2023-05-03T08:49:43;101919.69;;;13.61;100.00
29935;BME280;19905;53.370;-6.314;2023-05-03T08:52:13;101922.84;;;13.66;100.00
29935;BME280;19905;53.370;-6.314;2023-05-03T08:54:45;101915.72;;;13.80;100.00
29935;BME280;19905;53.370;-6.314;2023-05-03T08:57:17;101907.09;;;13.89;100.00
29935;BME280;19905;53.370;-6.314;2023-05-03T08:59:47;101910.50;;;13.91;100.00
29935;BME280;19905;53.370;-6.314;2023-05-03T09:02:16;101913.34;;;14.01;100.00
29935;BME280;19905;53.370;-6.314;2023-05-03T09:04:45;101908.88;;;14.01;100.00
29935;BME280;19905;53.370;-6.314;2023-05-03T09:07:13;101912.78;;;14.08;100.00
29935;BME280;19905;53.370;-6.314;2023-05-03T09:09:43;101912.59;;;13.98;100.00
29935;BME280;19905;53.370;-6.314;2023-05-03T09:12:34;101916.00;;;14.01;100.00
29935;BME280;19905;53.370;-6.314;2023-05-03T09:15:03;101909.59;;;14.16;100.00
29935;BME280;19905;53.370;-6.314;2023-05-03T09:17:32;101906.81;;;14.17;100.00
29935;BME280;19905;53.370;-6.314;2023-05-03T09:20:01;101909.00;;;14.23;100.00
29935;BME280;19905;53.370;-6.314;2023-05-03T09:22:31;101903.38;;;14.28;100.00
29935;BME280;19905;53.370;-6.314;2023-05-03T09:25:00;101899.66;;;14.31;100.00
29935;BME280;19905;53.370;-6.314;2023-05-03T09:27:30;101893.63;;;14.53;100.00
29935;BME280;19905;53.370;-6.314;2023-05-03T09:30:16;101893.53;;;14.41;100.00
29935;BME280;19905;53.370;-6.314;2023-05-03T09:32:48;101879.66;;;14.62;100.00
29935;BME280;19905;53.370;-6.314;2023-05-03T09:35:17;101881.63;;;14.71;100.00
29935;BME280;19905;53.370;-6.314;2023-05-03T09:37:46;101885.22;;;14.22;100.00
29935;BME280;19905;53.370;-6.314;2023-05-03T09:40:15;101880.78;;;14.10;100.00
29935;BME280;19905;53.370;-6.314;2023-05-03T09:43:06;101885.41;;;13.95;100.00
29935;BME280;19905;53.370;-6.314;2023-05-03T09:45:37;101877.19;;;14.35;100.00
29935;BME280;19905;53.370;-6.314;2023-05-03T09:48:06;101868.31;;;14.23;100.00
29935;BME280;19905;53.370;-6.314;2023-05-03T09:50:37;101872.13;;;14.43;100.00
29935;BME280;19905;53.370;-6.314;2023-05-03T09:53:06;101872.59;;;14.37;100.00
29935;BME280;19905;53.370;-6.314;2023-05-03T09:55:36;101863.16;;;14.33;100.00
29935;BME280;19905;53.370;-6.314;2023-05-03T09:58:06;101865.25;;;14.40;100.00
29935;BME280;19905;53.370;-6.314;2023-05-03T10:00:38;101868.25;;;14.48;100.00
29935;BME280;19905;53.370;-6.314;2023-05-03T10:03:09;101878.94;;;14.23;100.00
29935;BME280;19905;53.370;-6.314;2023-05-03T10:05:45;101878.69;;;14.63;100.00
29935;BME280;19905;53.370;-6.314;2023-05-03T10:08:18;101868.47;;;14.33;100.00
29935;BME280;19905;53.370;-6.314;2023-05-03T10:10:48;101873.16;;;14.29;100.00
29935;BME280;19905;53.370;-6.314;2023-05-03T10:13:21;101875.09;;;14.75;100.00
29935;BME280;19905;53.370;-6.314;2023-05-03T10:15:55;101886.75;;;14.61;100.00
29935;BME280;19905;53.370;-6.314;2023-05-03T10:18:26;101883.13;;;14.86;100.00
29935;BME280;19905;53.370;-6.314;2023-05-03T10:21:01;101889.09;;;15.01;100.00
29935;BME280;19905;53.370;-6.314;2023-05-03T10:23:32;101873.59;;;15.06;100.00
29935;BME280;19905;53.370;-6.314;2023-05-03T10:26:13;101883.63;;;14.91;100.00
29935;BME280;19905;53.370;-6.314;2023-05-03T10:28:42;101883.34;;;14.83;100.00
29935;BME280;19905;53.370;-6.314;2023-05-03T10:31:46;101884.53;;;15.14;100.00
29935;BME280;19905;53.370;-6.314;2023-05-03T10:34:22;101885.84;;;15.20;100.00
29935;BME280;19905;53.370;-6.314;2023-05-03T10:36:51;101876.06;;;14.74;100.00
29935;BME280;19905;53.370;-6.314;2023-05-03T10:39:21;101881.66;;;14.93;100.00
29935;BME280;19905;53.370;-6.314;2023-05-03T10:41:57;101873.50;;;15.19;100.00
29935;BME280;19905;53.370;-6.314;2023-05-03T10:44:32;101869.19;;;15.40;100.00
29935;BME280;19905;53.370;-6.314;2023-05-03T10:47:12;101861.22;;;15.40;100.00
29935;BME280;19905;53.370;-6.314;2023-05-03T10:49:41;101870.84;;;15.30;100.00
29935;BME280;19905;53.370;-6.314;2023-05-03T10:52:47;101861.56;;;15.36;100.00
29935;BME280;19905;53.370;-6.314;2023-05-03T10:55:18;101856.13;;;15.37;100.00
29935;BME280;19905;53.370;-6.314;2023-05-03T10:57:48;101851.41;;;15.41;100.00
29935;BME280;19905;53.370;-6.314;2023-05-03T11:00:26;101868.19;;;15.19;100.00
29935;BME280;19905;53.370;-6.314;2023-05-03T11:06:01;101856.97;;;15.60;100.00
29935;BME280;19905;53.370;-6.314;2023-05-03T11:08:30;101855.19;;;15.72;100.00
29935;BME280;19905;53.370;-6.314;2023-05-03T11:11:04;101853.69;;;15.45;100.00
29935;BME280;19905;53.370;-6.314;2023-05-03T11:13:35;101862.03;;;15.30;100.00
29935;BME280;19905;53.370;-6.314;2023-05-03T11:16:05;101848.22;;;15.24;100.00
29935;BME280;19905;53.370;-6.314;2023-05-03T11:18:35;101849.94;;;14.79;100.00
29935;BME280;19905;53.370;-6.314;2023-05-03T11:21:05;101845.09;;;15.19;100.00
29935;BME280;19905;53.370;-6.314;2023-05-03T11:23:37;101844.28;;;14.84;100.00
29935;BME280;19905;53.370;-6.314;2023-05-03T11:26:06;101837.34;;;14.70;100.00
29935;BME280;19905;53.370;-6.314;2023-05-03T11:28:37;101833.34;;;14.64;100.00
29935;BME280;19905;53.370;-6.314;2023-05-03T11:31:06;101831.38;;;15.02;100.00
29935;BME280;19905;53.370;-6.314;2023-05-03T11:33:36;101829.72;;;15.34;100.00
29935;BME280;19905;53.370;-6.314;2023-05-03T11:36:08;101827.28;;;15.20;100.00
29935;BME280;19905;53.370;-6.314;2023-05-03T11:38:39;101822.06;;;15.07;100.00
29935;BME280;19905;53.370;-6.314;2023-05-03T11:41:15;101824.25;;;15.02;100.00
29935;BME280;19905;53.370;-6.314;2023-05-03T11:43:44;101815.94;;;15.18;100.00
29935;BME280;19905;53.370;-6.314;2023-05-03T11:46:25;101820.88;;;15.34;100.00
29935;BME280;19905;53.370;-6.314;2023-05-03T11:48:55;101816.88;;;15.39;100.00
29935;BME280;19905;53.370;-6.314;2023-05-03T11:51:25;101823.78;;;15.08;100.00
29935;BME280;19905;53.370;-6.314;2023-05-03T11:53:55;101818.59;;;15.18;100.00
29935;BME280;19905;53.370;-6.314;2023-05-03T11:56:24;101811.09;;;15.45;100.00
29935;BME280;19905;53.370;-6.314;2023-05-03T11:58:53;101810.59;;;15.51;100.00
29935;BME280;19905;53.370;-6.314;2023-05-03T12:01:24;101811.19;;;15.44;100.00
29935;BME280;19905;53.370;-6.314;2023-05-03T12:03:56;101801.06;;;15.71;100.00
29935;BME280;19905;53.370;-6.314;2023-05-03T12:06:26;101798.22;;;15.95;100.00
29935;BME280;19905;53.370;-6.314;2023-05-03T12:08:57;101793.50;;;15.99;100.00
29935;BME280;19905;53.370;-6.314;2023-05-03T12:11:26;101795.09;;;15.90;100.00
29935;BME280;19905;53.370;-6.314;2023-05-03T12:13:59;101789.47;;;16.05;100.00
29935;BME280;19905;53.370;-6.314;2023-05-03T12:16:45;101792.09;;;15.72;100.00
29935;BME280;19905;53.370;-6.314;2023-05-03T12:19:25;101792.19;;;15.60;100.00
29935;BME280;19905;53.370;-6.314;2023-05-03T12:22:00;101784.09;;;15.72;100.00
29935;BME280;19905;53.370;-6.314;2023-05-03T12:24:32;101781.31;;;15.74;100.00
29935;BME280;19905;53.370;-6.314;2023-05-03T12:27:01;101778.13;;;15.58;100.00
29935;BME280;19905;53.370;-6.314;2023-05-03T12:29:29;101773.56;;;15.71;100.00
29935;BME280;19905;53.370;-6.314;2023-05-03T12:32:00;101769.59;;;15.97;100.00
29935;BME280;19905;53.370;-6.314;2023-05-03T12:34:31;101770.78;;;16.58;100.00
29935;BME280;19905;53.370;-6.314;2023-05-03T12:37:04;101769.19;;;16.45;100.00
29935;BME280;19905;53.370;-6.314;2023-05-03T12:39:37;101760.53;;;16.21;100.00
29935;BME280;19905;53.370;-6.314;2023-05-03T12:42:06;101761.66;;;16.18;100.00
29935;BME280;19905;53.370;-6.314;2023-05-03T12:44:38;101758.19;;;16.07;100.00
29935;BME280;19905;53.370;-6.314;2023-05-03T12:47:09;101765.19;;;16.40;100.00
29935;BME280;19905;53.370;-6.314;2023-05-03T12:49:50;101759.09;;;16.17;100.00
29935;BME280;19905;53.370;-6.314;2023-05-03T12:52:20;101752.38;;;16.13;100.00
29935;BME280;19905;53.370;-6.314;2023-05-03T12:54:52;101765.78;;;16.64;100.00